createdAt,value
2022-12-28T00:00:26.950Z,101705.66
2022-12-28T00:03:29.973Z,101702.31
2022-12-28T00:06:35.528Z,101699.63
2022-12-28T00:09:39.544Z,101699.19
2022-12-28T00:12:43.500Z,101698.94
2022-12-28T00:15:47.344Z,101697.28
2022-12-28T00:18:50.067Z,101689.28
2022-12-28T00:21:56.750Z,101689.03
2022-12-28T00:25:00.803Z,101685.91
2022-12-28T00:28:04.876Z,101659.97
2022-12-28T00:31:09.075Z,101663.81
2022-12-28T00:34:11.773Z,101669.88
2022-12-28T00:37:15.562Z,101687.03
2022-12-28T00:40:23.959Z,101691.38
2022-12-28T00:43:28.810Z,101677.06
2022-12-28T00:46:32.557Z,101666.19
2022-12-28T00:49:35.277Z,101669.97
2022-12-28T00:52:39.119Z,101670.31
2022-12-28T00:55:43.311Z,101672.22
2022-12-28T00:58:47.765Z,101659.22
2022-12-28T01:01:51.672Z,101667.25
2022-12-28T01:04:54.476Z,101666.03
2022-12-28T01:07:58.211Z,101665.69
2022-12-28T01:11:07.969Z,101656.50
2022-12-28T01:14:11.916Z,101656.91
2022-12-28T01:17:15.827Z,101655.69
2022-12-28T01:20:18.792Z,101637.69
2022-12-28T01:23:22.568Z,101641.06
2022-12-28T01:26:28.745Z,101642.72
2022-12-28T01:29:32.751Z,101630.94
2022-12-28T01:32:36.544Z,101627.09
2022-12-28T01:35:39.497Z,101628.38
2022-12-28T01:38:43.307Z,101625.91
2022-12-28T01:41:48.023Z,101618.03
2022-12-28T01:44:53.122Z,101608.97
2022-12-28T01:47:58.209Z,101604.56
2022-12-28T01:51:00.933Z,101593.69
2022-12-28T01:54:06.708Z,101583.50
2022-12-28T01:57:11.083Z,101576.69
2022-12-28T02:00:19.059Z,101562.91
2022-12-28T02:03:26.849Z,101563.06
2022-12-28T02:06:29.845Z,101555.50
2022-12-28T02:09:39.203Z,101555.28
2022-12-28T02:12:44.298Z,101544.69
2022-12-28T02:15:49.543Z,101531.84
2022-12-28T02:18:54.496Z,101533.09
2022-12-28T02:22:18.249Z,101534.56
2022-12-28T02:25:44.736Z,101517.19
2022-12-28T02:29:18.476Z,101521.41
2022-12-28T02:32:56.385Z,101497.31
2022-12-28T02:36:06.850Z,101492.91
2022-12-28T02:39:14.450Z,101489.31
2022-12-28T02:42:21.770Z,101479.84
2022-12-28T02:46:02.906Z,101482.78
2022-12-28T02:49:47.537Z,101470.47
2022-12-28T02:53:12.624Z,101464.81
2022-12-28T02:56:29.917Z,101463.97
2022-12-28T02:59:49.266Z,101446.81
2022-12-28T03:03:02.515Z,101432.34
2022-12-28T03:06:33.443Z,101419.66
2022-12-28T03:09:41.407Z,101418.78
2022-12-28T03:12:51.608Z,101407.44
2022-12-28T03:15:56.711Z,101410.38
2022-12-28T03:19:21.879Z,101394.06
2022-12-28T03:22:45.304Z,101396.53
2022-12-28T03:26:06.123Z,101395.31
2022-12-28T03:29:29.718Z,101400.50
2022-12-28T03:32:32.870Z,101391.34
2022-12-28T03:35:45.817Z,101380.69
2022-12-28T03:38:56.165Z,101375.44
2022-12-28T03:42:20.200Z,101371.38
2022-12-28T03:45:45.800Z,101353.28
2022-12-28T03:48:52.572Z,101355.31
2022-12-28T03:51:57.464Z,101344.84
2022-12-28T03:55:01.752Z,101347.34
2022-12-28T03:58:04.570Z,101346.34
2022-12-28T04:01:08.940Z,101346.53
2022-12-28T04:04:13.720Z,101347.09
2022-12-28T04:07:17.775Z,101337.47
2022-12-28T04:10:21.808Z,101333.13
2022-12-28T04:13:24.623Z,101323.09
2022-12-28T04:16:28.624Z,101319.09
2022-12-28T04:19:31.388Z,101308.44
2022-12-28T04:22:36.702Z,101306.81
2022-12-28T04:25:39.436Z,101301.13
2022-12-28T04:28:44.204Z,101296.13
2022-12-28T04:31:47.310Z,101297.41
2022-12-28T04:34:51.343Z,101297.56
2022-12-28T04:37:56.694Z,101289.44
2022-12-28T04:40:59.424Z,101291.31
2022-12-28T04:44:03.607Z,101278.94
2022-12-28T04:47:06.398Z,101278.34
2022-12-28T04:50:11.287Z,101278.75
2022-12-28T04:53:16.665Z,101277.50
2022-12-28T04:56:20.776Z,101287.97
2022-12-28T04:59:24.978Z,101280.22
2022-12-28T05:02:27.865Z,101281.25
2022-12-28T05:05:32.615Z,101277.50
2022-12-28T05:08:39.328Z,101273.50
2022-12-28T05:11:42.127Z,101282.53
2022-12-28T05:14:46.198Z,101272.72
2022-12-28T05:17:49.320Z,101267.03
2022-12-28T05:20:53.346Z,101261.81
2022-12-28T05:23:59.157Z,101250.72
2022-12-28T05:27:01.914Z,101253.66
2022-12-28T05:30:06.617Z,101252.63
2022-12-28T05:33:09.312Z,101254.50
2022-12-28T05:36:14.919Z,101244.91
2022-12-28T05:39:20.281Z,101235.88
2022-12-28T05:42:23.095Z,101224.16
2022-12-28T05:45:27.112Z,101221.28
2022-12-28T05:48:32.403Z,101221.44
2022-12-28T05:51:37.933Z,101222.13
2022-12-28T05:58:05.670Z,101210.38
2022-12-28T06:01:11.765Z,101201.41
2022-12-28T06:04:17.504Z,101197.63
2022-12-28T06:07:21.616Z,101197.19
2022-12-28T06:10:27.026Z,101181.50
2022-12-28T06:13:30.828Z,101177.13
2022-12-28T06:16:37.668Z,101178.59
2022-12-28T06:19:40.414Z,101168.16
2022-12-28T06:22:44.452Z,101162.91
2022-12-28T06:25:49.803Z,101159.78
2022-12-28T06:28:53.854Z,101163.75
2022-12-28T06:32:00.247Z,101141.56
2022-12-28T06:35:04.952Z,101136.91
2022-12-28T06:38:08.894Z,101137.34
2022-12-28T06:41:15.905Z,101125.19
2022-12-28T06:44:18.575Z,101140.88
2022-12-28T06:47:22.640Z,101137.97
2022-12-28T06:50:25.433Z,101124.78
2022-12-28T06:53:31.196Z,101116.63
2022-12-28T06:59:58.269Z,101110.59
2022-12-28T07:03:02.366Z,101099.47
2022-12-28T07:06:06.388Z,101093.19
2022-12-28T07:09:13.668Z,101089.16
2022-12-28T07:12:19.249Z,101093.38
2022-12-28T07:15:22.061Z,101089.22
2022-12-28T07:21:46.175Z,101079.56
2022-12-28T07:24:50.203Z,101095.09
2022-12-28T07:27:55.639Z,101083.56
2022-12-28T07:30:58.473Z,101081.28
2022-12-28T07:34:03.231Z,101081.28
2022-12-28T07:37:07.250Z,101066.38
2022-12-28T07:40:11.411Z,101070.09
2022-12-28T07:46:38.718Z,101066.78
2022-12-28T07:49:43.156Z,101047.13
2022-12-28T07:52:46.104Z,101048.13
2022-12-28T07:55:57.397Z,101046.06
2022-12-28T07:59:04.572Z,101037.28
2022-12-28T08:02:09.137Z,101044.63
2022-12-28T08:05:11.953Z,101040.22
2022-12-28T08:11:38.264Z,101036.44
2022-12-28T08:14:43.578Z,101036.19
2022-12-28T08:17:47.602Z,101028.59
2022-12-28T08:20:50.317Z,101028.34
2022-12-28T08:27:15.435Z,101020.59
2022-12-28T08:30:21.780Z,101013.69
2022-12-28T08:33:25.781Z,100995.03
2022-12-28T08:36:29.239Z,100999.56
2022-12-28T08:39:33.224Z,101005.00
2022-12-28T08:42:37.457Z,100999.09
2022-12-28T08:45:42.816Z,101002.88
2022-12-28T08:48:46.673Z,100980.06
2022-12-28T08:51:50.720Z,100989.84
2022-12-28T08:54:54.776Z,100980.84
2022-12-28T08:57:57.957Z,100997.22
2022-12-28T09:01:09.926Z,100978.13
2022-12-28T09:04:15.390Z,100983.22
2022-12-28T09:07:18.097Z,100986.25
2022-12-28T09:10:22.146Z,100978.28
2022-12-28T09:13:25.211Z,100978.38
2022-12-28T09:16:31.034Z,100978.28
2022-12-28T09:19:33.755Z,100968.88
2022-12-28T09:22:37.701Z,100966.47
2022-12-28T09:25:41.761Z,100956.81
2022-12-28T09:28:46.253Z,100955.19
2022-12-28T09:31:51.716Z,100949.84
2022-12-28T09:34:55.697Z,100937.00
2022-12-28T09:37:58.639Z,100934.03
2022-12-28T09:41:02.649Z,100930.94
2022-12-28T09:44:21.084Z,100922.16
2022-12-28T09:47:32.857Z,100920.78
2022-12-28T09:50:37.443Z,100913.44
2022-12-28T09:53:40.181Z,100918.81
2022-12-28T10:00:16.964Z,100923.09
2022-12-28T10:03:25.968Z,100918.41
2022-12-28T10:06:32.273Z,100907.16
2022-12-28T10:09:36.811Z,100908.22
2022-12-28T10:12:40.778Z,100900.94
2022-12-28T10:15:43.650Z,100909.84
2022-12-28T10:18:50.723Z,100908.03
2022-12-28T10:22:01.877Z,100895.09
2022-12-28T10:25:14.376Z,100897.81
2022-12-28T10:28:20.426Z,100904.91
2022-12-28T10:31:34.046Z,100887.34
2022-12-28T10:34:39.515Z,100887.81
2022-12-28T10:37:46.804Z,100887.69
2022-12-28T10:40:59.308Z,100884.38
2022-12-28T10:47:46.427Z,100874.66
2022-12-28T10:50:54.804Z,100873.47
2022-12-28T10:54:00.561Z,100855.16
2022-12-28T10:57:05.119Z,100864.16
2022-12-28T11:00:23.519Z,100854.66
2022-12-28T11:03:29.545Z,100851.72
2022-12-28T11:06:35.429Z,100851.38
2022-12-28T11:09:39.375Z,100858.50
2022-12-28T11:12:45.162Z,100844.03
2022-12-28T11:15:49.199Z,100843.56
2022-12-28T11:18:52.239Z,100840.03
2022-12-28T11:21:57.974Z,100834.91
2022-12-28T11:25:03.968Z,100832.75
2022-12-28T11:28:16.222Z,100834.22
2022-12-28T11:31:26.683Z,100828.88
2022-12-28T11:34:32.936Z,100833.50
2022-12-28T11:37:38.268Z,100825.06
2022-12-28T11:40:53.709Z,100821.50
2022-12-28T11:43:57.644Z,100821.59
2022-12-28T11:47:06.972Z,100822.81
2022-12-28T11:50:42.194Z,100823.97
2022-12-28T11:54:00.241Z,100806.97
2022-12-28T11:57:03.417Z,100801.50
2022-12-28T12:00:50.483Z,100792.06
2022-12-28T12:04:20.304Z,100812.03
2022-12-28T12:07:52.772Z,100794.56
2022-12-28T12:11:30.875Z,100793.59
2022-12-28T12:14:39.967Z,100782.06
2022-12-28T12:17:46.393Z,100782.81
2022-12-28T12:20:58.430Z,100769.59
2022-12-28T12:24:11.163Z,100773.84
2022-12-28T12:27:21.075Z,100766.16
2022-12-28T12:30:25.965Z,100765.75
2022-12-28T12:33:32.721Z,100767.00
2022-12-28T12:37:08.091Z,100767.19
2022-12-28T12:40:57.237Z,100766.25
2022-12-28T12:44:18.654Z,100751.41
2022-12-28T12:47:49.090Z,100757.63
2022-12-28T12:51:16.413Z,100753.50
2022-12-28T12:54:33.714Z,100751.41
2022-12-28T12:57:46.578Z,100756.75
2022-12-28T13:01:07.910Z,100750.50
2022-12-28T13:04:20.509Z,100753.44
2022-12-28T13:07:26.797Z,100744.53
2022-12-28T13:10:36.019Z,100755.75
2022-12-28T13:13:42.731Z,100751.50
2022-12-28T13:16:50.178Z,100741.47
2022-12-28T13:20:07.970Z,100745.75
2022-12-28T13:23:18.212Z,100735.91
2022-12-28T13:26:28.675Z,100739.47
2022-12-28T13:29:39.021Z,100737.47
2022-12-28T13:32:53.414Z,100738.16
2022-12-28T13:36:06.578Z,100738.66
2022-12-28T13:42:52.744Z,100732.94
2022-12-28T13:45:58.788Z,100730.94
2022-12-28T13:49:04.360Z,100733.34
2022-12-28T13:52:13.165Z,100726.28
2022-12-28T13:55:20.827Z,100729.19
2022-12-28T13:58:29.697Z,100734.50
2022-12-28T14:01:38.265Z,100742.06
2022-12-28T14:04:52.980Z,100744.69
2022-12-28T14:07:58.814Z,100747.09
2022-12-28T14:11:03.635Z,100748.91
2022-12-28T14:14:09.575Z,100757.97
2022-12-28T14:17:14.403Z,100751.47
2022-12-28T14:20:20.170Z,100756.69
2022-12-28T14:23:25.159Z,100755.53
2022-12-28T14:26:29.772Z,100763.00
2022-12-28T14:29:34.985Z,100749.00
2022-12-28T14:32:42.809Z,100748.94
2022-12-28T14:35:51.695Z,100741.13
2022-12-28T14:39:04.218Z,100749.16
2022-12-28T14:42:22.190Z,100746.19
2022-12-28T14:46:05.059Z,100745.81
2022-12-28T14:49:33.622Z,100746.56
2022-12-28T14:52:43.073Z,100748.72
2022-12-28T14:56:01.626Z,100738.53
2022-12-28T14:59:04.883Z,100744.41
2022-12-28T15:05:39.639Z,100756.47
2022-12-28T15:08:44.989Z,100746.31
2022-12-28T15:11:47.725Z,100751.84
2022-12-28T15:14:52.110Z,100752.94
2022-12-28T15:17:54.758Z,100750.94
2022-12-28T15:20:59.676Z,100751.53
2022-12-28T15:24:05.098Z,100757.16
2022-12-28T15:27:07.883Z,100753.81
2022-12-28T15:30:18.749Z,100749.38
2022-12-28T15:33:23.194Z,100745.28
2022-12-28T15:36:27.290Z,100744.13
2022-12-28T15:39:33.314Z,100748.06
2022-12-28T15:42:40.314Z,100739.22
2022-12-28T15:49:26.668Z,100743.00
2022-12-28T15:52:30.681Z,100752.19
2022-12-28T15:55:36.107Z,100756.25
2022-12-28T15:58:38.789Z,100740.22
2022-12-28T16:05:08.252Z,100727.75
2022-12-28T16:08:12.316Z,100726.22
2022-12-28T16:11:19.234Z,100727.09
2022-12-28T16:14:21.907Z,100728.94
2022-12-28T16:20:47.406Z,100733.00
2022-12-28T16:23:50.126Z,100719.84
2022-12-28T16:30:21.066Z,100717.88
2022-12-28T16:33:25.575Z,100728.00
2022-12-28T16:36:29.726Z,100721.13
2022-12-28T16:39:33.660Z,100732.13
2022-12-28T16:42:38.770Z,100716.75
2022-12-28T16:45:44.394Z,100713.19
2022-12-28T16:48:47.096Z,100719.25
2022-12-28T16:51:50.878Z,100709.13
2022-12-28T16:54:53.573Z,100719.50
2022-12-28T16:57:59.332Z,100716.84
2022-12-28T17:01:07.433Z,100715.63
2022-12-28T17:04:11.402Z,100713.72
2022-12-28T17:07:15.155Z,100710.88
2022-12-28T17:10:18.283Z,100720.09
2022-12-28T17:13:23.467Z,100719.19
2022-12-28T17:16:26.267Z,100716.34
2022-12-28T17:19:30.409Z,100719.13
2022-12-28T17:22:34.356Z,100719.84
2022-12-28T17:25:37.594Z,100722.66
2022-12-28T17:28:42.705Z,100716.34
2022-12-28T17:31:45.782Z,100709.47
2022-12-28T17:34:49.605Z,100723.69
2022-12-28T17:37:53.441Z,100715.59
2022-12-28T17:40:56.661Z,100711.44
2022-12-28T17:44:02.474Z,100705.19
2022-12-28T17:47:05.255Z,100699.72
2022-12-28T17:50:10.416Z,100701.03
2022-12-28T17:53:14.211Z,100688.69
2022-12-28T17:56:17.293Z,100680.75
2022-12-28T17:59:22.483Z,100676.72
2022-12-28T18:02:25.492Z,100673.19
2022-12-28T18:05:29.672Z,100672.69
2022-12-28T18:08:32.628Z,100676.81
2022-12-28T18:11:36.668Z,100674.09
2022-12-28T18:14:41.979Z,100670.22
2022-12-28T18:17:44.753Z,100668.63
2022-12-28T18:20:58.157Z,100649.56
2022-12-28T18:24:02.105Z,100660.09
2022-12-28T18:27:04.876Z,100660.91
2022-12-28T18:30:11.579Z,100642.59
2022-12-28T18:33:14.289Z,100651.38
2022-12-28T18:36:18.959Z,100658.59
2022-12-28T18:39:22.911Z,100651.97
2022-12-28T18:42:25.660Z,100652.13
2022-12-28T18:45:50.049Z,100650.31
2022-12-28T18:48:52.842Z,100650.47
2022-12-28T18:51:56.889Z,100657.69
2022-12-28T18:55:00.817Z,100642.59
2022-12-28T18:58:03.536Z,100649.88
2022-12-28T19:01:25.415Z,100662.72
2022-12-28T19:04:34.406Z,100664.47
2022-12-28T19:07:37.275Z,100655.31
2022-12-28T19:10:41.229Z,100663.03
2022-12-28T19:13:45.175Z,100665.25
2022-12-28T19:16:50.493Z,100665.88
2022-12-28T19:19:53.219Z,100659.81
2022-12-28T19:22:57.159Z,100663.31
2022-12-28T19:26:01.558Z,100655.69
2022-12-28T19:29:06.956Z,100647.34
2022-12-28T19:32:12.359Z,100650.47
2022-12-28T19:35:15.812Z,100653.81
2022-12-28T19:38:19.746Z,100653.53
2022-12-28T19:41:24.664Z,100645.06
2022-12-28T19:44:27.373Z,100615.03
2022-12-28T19:47:32.747Z,100607.53
2022-12-28T19:50:35.461Z,100581.84
2022-12-28T19:53:39.727Z,100570.97
2022-12-28T19:56:43.701Z,100557.22
2022-12-28T19:59:46.351Z,100566.50
2022-12-28T20:02:51.820Z,100564.44
2022-12-28T20:05:54.595Z,100560.38
2022-12-28T20:09:01.247Z,100558.88
2022-12-28T20:12:05.187Z,100564.44
2022-12-28T20:15:08.669Z,100588.56
2022-12-28T20:18:13.969Z,100585.47
2022-12-28T20:21:20.065Z,100596.84
2022-12-28T20:24:24.913Z,100591.75
2022-12-28T20:27:31.754Z,100586.44
2022-12-28T20:30:34.448Z,100580.56
2022-12-28T20:33:40.661Z,100567.75
2022-12-28T20:36:43.376Z,100570.66
2022-12-28T20:39:47.663Z,100561.44
2022-12-28T20:43:14.213Z,100556.03
2022-12-28T20:46:16.930Z,100557.66
2022-12-28T20:49:22.394Z,100556.44
2022-12-28T20:52:25.173Z,100547.06
2022-12-28T20:55:29.177Z,100548.19
2022-12-28T20:58:33.096Z,100538.97
2022-12-28T21:01:36.905Z,100535.13
2022-12-28T21:04:42.305Z,100517.75
2022-12-28T21:07:44.976Z,100503.00
2022-12-28T21:10:49.130Z,100490.94
2022-12-28T21:13:53.537Z,100480.81
2022-12-28T21:16:56.229Z,100477.75
2022-12-28T21:20:01.511Z,100466.59
2022-12-28T21:23:04.253Z,100470.16
2022-12-28T21:26:10.222Z,100468.41
2022-12-28T21:29:12.871Z,100463.34
2022-12-28T21:32:16.829Z,100450.00
2022-12-28T21:38:44.905Z,100454.75
2022-12-28T21:41:50.574Z,100453.41
2022-12-28T21:44:54.582Z,100432.31
2022-12-28T21:47:57.274Z,100430.81
2022-12-28T21:51:28.343Z,100428.66
2022-12-28T21:54:32.351Z,100421.84
2022-12-28T21:57:36.281Z,100425.50
2022-12-28T22:00:57.984Z,100412.91
2022-12-28T22:04:18.371Z,100396.19
2022-12-28T22:07:25.067Z,100392.97
2022-12-28T22:10:47.225Z,100384.50
2022-12-28T22:13:53.581Z,100378.13
2022-12-28T22:16:57.914Z,100385.75
2022-12-28T22:20:00.597Z,100375.81
2022-12-28T22:23:07.547Z,100373.41
2022-12-28T22:26:10.485Z,100373.31
2022-12-28T22:29:14.567Z,100363.66
2022-12-28T22:32:17.432Z,100369.34
2022-12-28T22:35:21.658Z,100357.13
2022-12-28T22:38:26.967Z,100351.91
2022-12-28T22:41:29.641Z,100362.44
2022-12-28T22:44:33.553Z,100361.97
2022-12-28T22:47:37.540Z,100355.31
2022-12-28T22:50:43.287Z,100365.75
2022-12-28T22:53:51.090Z,100354.50
2022-12-28T22:56:53.799Z,100348.19
2022-12-28T22:59:57.844Z,100353.66
2022-12-28T23:03:00.617Z,100340.47
2022-12-28T23:06:04.641Z,100338.03
2022-12-28T23:09:09.915Z,100326.25
2022-12-28T23:12:13.864Z,100319.06
2022-12-28T23:15:20.172Z,100315.31
2022-12-28T23:18:41.695Z,100315.03
2022-12-28T23:22:01.990Z,100316.25
2022-12-28T23:25:25.911Z,100314.69
2022-12-28T23:28:30.250Z,100301.75
2022-12-28T23:31:32.924Z,100304.47
2022-12-28T23:37:56.952Z,100293.34
2022-12-28T23:41:24.197Z,100289.88
2022-12-28T23:44:28.957Z,100284.03
2022-12-28T23:47:31.687Z,100279.00
2022-12-28T23:50:35.645Z,100283.53
2022-12-28T23:53:38.327Z,100276.00
2022-12-28T23:56:44.219Z,100262.22
2022-12-28T23:59:48.780Z,100272.84
